Time,TemperatureF,DewpointF,PressureIn,WindDirection,WindDirectionDegrees,WindSpeedMPH,WindSpeedGustMPH,Humidity,HourlyPrecipIn,Conditions,Clouds,dailyrainin,SoftwareType,DateUTC
2013-05-18 00:00:00,51.1,39.7,29.42,North,0,0.0,0.0,65,0.00,CLR,SKC,0.00,WeatherDisplay:10.37,2013-05-17 23:00:00,
2013-05-18 00:05:00,51.1,39.7,29.42,NNE,22,0.0,0.0,65,0.00,CLR,SKC,0.00,WeatherDisplay:10.37,2013-05-17 23:05:00,
2013-05-18 00:10:00,51.1,40.1,29.42,North,0,0.0,0.0,66,0.00,CLR,SKC,0.00,WeatherDisplay:10.37,2013-05-17 23:10:00,
2013-05-18 00:15:00,51.1,40.1,29.41,NE,45,0.0,0.0,66,0.00,CLR,SKC,0.00,WeatherDisplay:10.37,2013-05-17 23:15:00,
2013-05-18 00:20:00,50.9,39.9,29.41,NNW,338,0.0,0.0,66,0.00,CLR,SKC,0.00,WeatherDisplay:10.37,2013-05-17 23:20:00,
2013-05-18 00:25:00,50.7,39.8,29.41,NW,315,0.0,0.0,66,0.00,CLR,SKC,0.00,WeatherDisplay:10.37,2013-05-17 23:25:00,
2013-05-18 00:30:00,50.7,39.8,29.42,North,0,0.0,0.0,66,0.00,CLR,SKC,0.00,WeatherDisplay:10.37,2013-05-17 23:30:00,
2013-05-18 00:35:00,50.7,39.8,29.42,North,0,0.0,0.0,66,0.00,CLR,SKC,0.00,WeatherDisplay:10.37,2013-05-17 23:35:00,
2013-05-18 00:40:00,50.7,39.8,29.42,North,0,0.0,0.0,66,0.00,CLR,SKC,0.00,WeatherDisplay:10.37,2013-05-17 23:40:00,
2013-05-18 00:45:00,50.7,39.8,29.41,North,0,0.0,0.0,66,0.00,CLR,SKC,0.00,WeatherDisplay:10.37,2013-05-17 23:45:00,
2013-05-18 00:50:00,50.7,39.8,29.40,North,0,0.0,0.0,66,0.00,CLR,SKC,0.00,WeatherDisplay:10.37,2013-05-17 23:50:00,
2013-05-18 00:55:00,50.7,40.2,29.39,NNE,22,0.0,0.0,67,0.00,CLR,SKC,0.00,WeatherDisplay:10.37,2013-05-17 23:55:00,
2013-05-18 01:00:00,50.7,40.2,29.39,NNE,22,0.0,0.0,67,0.00,CLR,SKC,0.00,WeatherDisplay:10.37,2013-05-18 00:00:00,
2013-05-18 01:05:00,50.7,40.5,29.39,NNW,338,0.0,0.0,68,0.00,CLR,SKC,0.00,WeatherDisplay:10.37,2013-05-18 00:05:00,
2013-05-18 01:10:00,50.7,40.5,29.39,NNW,338,0.0,0.0,68,0.00,CLR,SKC,0.00,WeatherDisplay:10.37,2013-05-18 00:10:00,
2013-05-18 01:15:00,50.7,40.5,29.39,NW,315,0.0,0.0,68,0.00,CLR,SKC,0.00,WeatherDisplay:10.37,2013-05-18 00:15:00,
2013-05-18 01:20:00,50.7,40.5,29.40,NNE,22,0.0,0.0,68,0.00,CLR,SKC,0.00,WeatherDisplay:10.37,2013-05-18 00:20:00,
2013-05-18 01:25:00,50.7,40.5,29.39,North,0,0.0,0.0,68,0.00,CLR,SKC,0.00,WeatherDisplay:10.37,2013-05-18 00:25:00,
2013-05-18 01:30:00,50.7,40.5,29.39,NNW,338,0.0,0.0,68,0.00,CLR,SKC,0.00,WeatherDisplay:10.37,2013-05-18 00:30:00,
2013-05-18 01:35:00,50.7,40.5,29.39,NNW,338,0.0,0.0,68,0.00,CLR,SKC,0.00,WeatherDisplay:10.37,2013-05-18 00:35:00,
2013-05-18 01:40:00,50.7,40.9,29.39,North,0,0.0,0.0,69,0.00,CLR,SKC,0.00,WeatherDisplay:10.37,2013-05-18 00:40:00,
2013-05-18 01:45:00,50.7,40.9,29.39,North,0,0.0,0.0,69,0.00,CLR,SKC,0.00,WeatherDisplay:10.37,2013-05-18 00:45:00,
2013-05-18 01:51:00,50.7,40.9,29.39,NNW,338,0.0,0.0,69,0.00,CLR,SKC,0.00,WeatherDisplay:10.37,2013-05-18 00:51:00,
2013-05-18 01:56:00,50.7,40.9,29.39,NNW,338,0.0,0.0,69,0.00,CLR,SKC,0.00,WeatherDisplay:10.37,2013-05-18 00:56:00,
2013-05-18 02:01:00,50.7,40.9,29.39,NW,315,0.0,0.0,69,0.00,CLR,SKC,0.00,WeatherDisplay:10.37,2013-05-18 01:01:00,
2013-05-18 02:06:00,50.4,40.6,29.38,NW,315,0.0,0.0,69,0.00,CLR,SKC,0.00,WeatherDisplay:10.37,2013-05-18 01:06:00,
2013-05-18 02:11:00,50.2,40.8,29.39,NW,315,0.0,0.0,70,0.00,CLR,SKC,0.00,WeatherDisplay:10.37,2013-05-18 01:11:00,
2013-05-18 02:16:00,50.2,41.1,29.38,NW,315,0.0,0.0,71,0.00,CLR,SKC,0.00,WeatherDisplay:10.37,2013-05-18 01:16:00,
2013-05-18 02:21:00,49.8,40.8,29.38,NW,315,0.0,0.0,71,0.00,CLR,SKC,0.00,WeatherDisplay:10.37,2013-05-18 01:21:00,
2013-05-18 02:26:00,49.8,41.2,29.38,NW,315,0.0,0.0,72,0.00,CLR,SKC,0.00,WeatherDisplay:10.37,2013-05-18 01:26:00,
2013-05-18 02:31:00,49.8,41.2,29.38,NW,315,0.0,0.0,72,0.00,CLR,SKC,0.00,WeatherDisplay:10.37,2013-05-18 01:31:00,
2013-05-18 02:36:00,49.6,41.0,29.37,NW,315,0.0,0.0,72,0.00,CLR,SKC,0.00,WeatherDisplay:10.37,2013-05-18 01:36:00,
2013-05-18 02:41:00,49.6,41.3,29.37,NW,315,0.0,0.0,73,0.00,CLR,SKC,0.00,WeatherDisplay:10.37,2013-05-18 01:41:00,
2013-05-18 02:46:00,49.6,41.3,29.37,NW,315,0.0,0.0,73,0.00,CLR,SKC,0.00,WeatherDisplay:10.37,2013-05-18 01:46:00,
2013-05-18 02:51:00,49.6,41.7,29.38,NW,315,0.0,0.0,74,0.00,CLR,SKC,0.00,WeatherDisplay:10.37,2013-05-18 01:51:00,
2013-05-18 02:56:00,49.6,41.7,29.37,NW,315,0.0,0.0,74,0.00,CLR,SKC,0.00,WeatherDisplay:10.37,2013-05-18 01:56:00,
2013-05-18 03:01:00,49.6,41.7,29.37,NW,315,0.0,0.0,74,0.00,CLR,SKC,0.00,WeatherDisplay:10.37,2013-05-18 02:01:00,
2013-05-18 03:06:00,49.6,41.7,29.37,NW,315,0.0,0.0,74,0.00,CLR,SKC,0.00,WeatherDisplay:10.37,2013-05-18 02:06:00,
2013-05-18 03:11:00,49.6,42.0,29.37,NW,315,0.0,0.0,75,0.00,CLR,SKC,0.00,WeatherDisplay:10.37,2013-05-18 02:11:00,
2013-05-18 03:16:00,49.6,42.0,29.37,NW,315,0.0,0.0,75,0.00,CLR,SKC,0.00,WeatherDisplay:10.37,2013-05-18 02:16:00,
2013-05-18 03:21:00,49.6,42.0,29.37,NW,315,0.0,0.0,75,0.00,CLR,SKC,0.00,WeatherDisplay:10.37,2013-05-18 02:21:00,
2013-05-18 03:26:00,49.6,42.0,29.37,WNW,292,0.0,0.0,75,0.00,CLR,SKC,0.00,WeatherDisplay:10.37,2013-05-18 02:26:00,
2013-05-18 03:31:00,49.6,42.0,29.37,WNW,292,0.0,0.0,75,0.00,CLR,SKC,0.00,WeatherDisplay:10.37,2013-05-18 02:31:00,
2013-05-18 03:36:00,49.6,42.0,29.37,WNW,292,0.0,0.0,75,0.00,CLR,SKC,0.00,WeatherDisplay:10.37,2013-05-18 02:36:00,
2013-05-18 03:41:00,49.6,42.0,29.37,WNW,292,0.0,0.0,75,0.00,CLR,SKC,0.00,WeatherDisplay:10.37,2013-05-18 02:41:00,
2013-05-18 03:46:00,49.6,42.0,29.37,WNW,292,0.0,0.0,75,0.00,CLR,SKC,0.00,WeatherDisplay:10.37,2013-05-18 02:46:00,
2013-05-18 03:51:00,49.6,42.0,29.37,WNW,292,0.0,0.0,75,0.00,CLR,SKC,0.00,WeatherDisplay:10.37,2013-05-18 02:51:00,
2013-05-18 03:56:00,49.6,42.4,29.37,WNW,292,0.0,0.0,76,0.00,CLR,SKC,0.00,WeatherDisplay:10.37,2013-05-18 02:56:00,
2013-05-18 04:01:00,49.6,42.4,29.37,WNW,292,0.0,0.0,76,0.00,CLR,SKC,0.00,WeatherDisplay:10.37,2013-05-18 03:01:00,
2013-05-18 04:06:00,49.5,42.2,29.36,WNW,292,0.0,0.0,76,0.00,CLR,SKC,0.00,WeatherDisplay:10.37,2013-05-18 03:06:00,
2013-05-18 04:11:00,49.5,42.2,29.36,NW,315,0.0,0.0,76,0.00,CLR,SKC,0.00,WeatherDisplay:10.37,2013-05-18 03:11:00,
2013-05-18 04:16:00,49.3,42.0,29.36,NW,315,0.0,0.0,76,0.00,CLR,SKC,0.00,WeatherDisplay:10.37,2013-05-18 03:16:00,
2013-05-18 04:21:00,49.3,42.4,29.36,WNW,292,0.0,0.0,77,0.00,CLR,SKC,0.00,WeatherDisplay:10.37,2013-05-18 03:21:00,
2013-05-18 04:26:00,49.3,42.4,29.36,WNW,292,0.0,0.0,77,0.00,CLR,SKC,0.00,WeatherDisplay:10.37,2013-05-18 03:26:00,
2013-05-18 04:31:00,49.3,42.4,29.36,WNW,292,0.0,0.0,77,0.00,CLR,SKC,0.00,WeatherDisplay:10.37,2013-05-18 03:31:00,
2013-05-18 04:36:00,49.3,42.4,29.36,West,270,0.0,0.0,77,0.00,CLR,SKC,0.00,WeatherDisplay:10.37,2013-05-18 03:36:00,
2013-05-18 04:41:00,49.3,42.4,29.35,West,270,0.0,0.0,77,0.00,CLR,SKC,0.00,WeatherDisplay:10.37,2013-05-18 03:41:00,
2013-05-18 04:46:00,49.3,42.4,29.36,West,270,0.0,0.0,77,0.00,CLR,SKC,0.00,WeatherDisplay:10.37,2013-05-18 03:46:00,
2013-05-18 04:51:00,49.3,42.7,29.36,West,270,0.0,0.0,78,0.00,CLR,SKC,0.00,WeatherDisplay:10.37,2013-05-18 03:51:00,
2013-05-18 04:56:00,49.3,42.7,29.36,West,270,0.0,0.0,78,0.02,RA,SKC,0.02,WeatherDisplay:10.37,2013-05-18 03:56:00,
2013-05-18 05:01:00,49.1,42.5,29.36,West,270,0.0,0.0,78,0.02,RA,SKC,0.02,WeatherDisplay:10.37,2013-05-18 04:01:00,
2013-05-18 05:06:00,48.9,42.4,29.36,West,270,0.0,0.0,78,0.02,,SKC,0.02,WeatherDisplay:10.37,2013-05-18 04:06:00,
2013-05-18 05:11:00,48.9,42.7,29.35,West,270,0.0,0.0,79,0.02,CLR,SKC,0.02,WeatherDisplay:10.37,2013-05-18 04:11:00,
2013-05-18 05:16:00,48.9,42.7,29.34,West,270,0.0,0.0,79,0.02,CLR,SKC,0.02,WeatherDisplay:10.37,2013-05-18 04:16:00,
2013-05-18 05:21:00,48.9,42.7,29.34,East,90,0.0,0.0,79,0.02,CLR,SKC,0.02,WeatherDisplay:10.37,2013-05-18 04:21:00,
2013-05-18 05:26:00,48.9,42.7,29.35,ESE,112,0.0,0.0,79,0.02,CLR,SKC,0.02,WeatherDisplay:10.37,2013-05-18 04:26:00,
2013-05-18 05:31:00,48.7,42.5,29.35,ESE,112,0.0,0.0,79,0.02,CLR,SKC,0.02,WeatherDisplay:10.37,2013-05-18 04:31:00,
2013-05-18 05:36:00,48.7,42.8,29.35,ESE,112,0.0,0.0,80,0.02,CLR,SKC,0.02,WeatherDisplay:10.37,2013-05-18 04:36:00,
2013-05-18 05:41:00,48.9,43.0,29.35,ESE,112,0.0,0.0,80,0.02,CLR,SKC,0.02,WeatherDisplay:10.37,2013-05-18 04:41:00,
2013-05-18 05:46:00,48.9,43.0,29.35,ESE,112,0.0,0.0,80,0.02,CLR,SKC,0.02,WeatherDisplay:10.37,2013-05-18 04:46:00,
2013-05-18 05:51:00,48.9,43.0,29.36,SSE,158,0.0,0.0,80,0.02,CLR,SKC,0.02,WeatherDisplay:10.37,2013-05-18 04:51:00,
2013-05-18 05:56:00,48.9,43.0,29.36,SSE,158,0.0,0.0,80,0.00,CLR,SKC,0.02,WeatherDisplay:10.37,2013-05-18 04:56:00,
2013-05-18 06:01:00,48.9,43.3,29.36,SSE,158,0.0,0.0,81,0.00,CLR,SKC,0.02,WeatherDisplay:10.37,2013-05-18 05:01:00,
2013-05-18 06:06:00,48.9,43.3,29.36,South,180,0.0,0.0,81,0.00,CLR,SKC,0.02,WeatherDisplay:10.37,2013-05-18 05:06:00,
2013-05-18 06:11:00,49.1,43.5,29.36,South,180,0.0,0.0,81,0.00,CLR,SKC,0.02,WeatherDisplay:10.37,2013-05-18 05:11:00,
2013-05-18 06:16:00,49.1,43.5,29.36,South,180,0.0,0.0,81,0.00,CLR,SKC,0.02,WeatherDisplay:10.37,2013-05-18 05:16:00,
2013-05-18 06:21:00,49.1,43.5,29.35,South,180,0.0,0.0,81,0.00,CLR,SKC,0.02,WeatherDisplay:10.37,2013-05-18 05:21:00,
2013-05-18 06:26:00,49.1,43.5,29.35,SSW,202,0.0,0.0,81,0.00,CLR,SKC,0.02,WeatherDisplay:10.37,2013-05-18 05:26:00,
2013-05-18 06:31:00,49.1,43.5,29.35,SW,225,0.0,0.0,81,0.00,CLR,SKC,0.02,WeatherDisplay:10.37,2013-05-18 05:31:00,
2013-05-18 06:36:00,49.3,43.7,29.35,SW,225,0.0,0.0,81,0.00,CLR,SKC,0.02,WeatherDisplay:10.37,2013-05-18 05:36:00,
2013-05-18 06:41:00,49.3,43.7,29.35,SW,225,0.0,0.0,81,0.00,CLR,SKC,0.02,WeatherDisplay:10.37,2013-05-18 05:41:00,
2013-05-18 06:46:00,49.3,43.7,29.35,SW,225,0.0,0.0,81,0.00,CLR,SKC,0.02,WeatherDisplay:10.37,2013-05-18 05:46:00,
2013-05-18 06:51:00,49.3,43.7,29.36,WSW,248,0.0,0.0,81,0.00,CLR,SKC,0.02,WeatherDisplay:10.37,2013-05-18 05:51:00,
2013-05-18 06:56:00,49.3,44.0,29.35,WSW,248,0.0,0.0,82,0.00,CLR,SKC,0.02,WeatherDisplay:10.37,2013-05-18 05:56:00,
2013-05-18 07:01:00,49.3,44.0,29.35,WSW,248,0.0,0.0,82,0.00,CLR,SKC,0.02,WeatherDisplay:10.37,2013-05-18 06:01:00,
2013-05-18 07:06:00,49.3,44.0,29.35,WSW,248,0.0,0.0,82,0.00,CLR,SKC,0.02,WeatherDisplay:10.37,2013-05-18 06:06:00,
2013-05-18 07:11:00,49.3,44.0,29.36,WSW,248,0.0,0.0,82,0.00,CLR,SKC,0.02,WeatherDisplay:10.37,2013-05-18 06:11:00,
2013-05-18 07:16:00,49.3,44.0,29.36,WSW,248,0.0,0.0,82,0.00,CLR,SKC,0.02,WeatherDisplay:10.37,2013-05-18 06:16:00,
2013-05-18 07:21:00,49.3,44.0,29.36,WSW,248,0.0,0.0,82,0.00,CLR,SKC,0.02,WeatherDisplay:10.37,2013-05-18 06:21:00,
2013-05-18 07:26:00,49.3,44.0,29.36,WSW,248,0.0,0.0,82,0.00,CLR,SKC,0.02,WeatherDisplay:10.37,2013-05-18 06:26:00,
2013-05-18 07:31:00,49.3,44.0,29.35,WNW,292,0.0,0.0,82,0.00,CLR,SKC,0.02,WeatherDisplay:10.37,2013-05-18 06:31:00,
2013-05-18 07:36:00,49.6,44.4,29.35,WSW,248,0.0,0.0,82,0.00,CLR,SKC,0.02,WeatherDisplay:10.37,2013-05-18 06:36:00,
2013-05-18 07:42:00,49.6,44.7,29.35,WSW,248,0.0,0.0,83,0.00,CLR,SKC,0.02,WeatherDisplay:10.37,2013-05-18 06:42:00,
2013-05-18 07:47:00,49.6,44.7,29.35,West,270,0.0,0.0,83,0.00,CLR,SKC,0.02,WeatherDisplay:10.37,2013-05-18 06:47:00,
2013-05-18 07:52:00,49.6,44.7,29.34,NNW,338,0.0,0.0,83,0.00,CLR,SKC,0.02,WeatherDisplay:10.37,2013-05-18 06:52:00,
2013-05-18 07:57:00,49.6,44.7,29.35,NW,315,0.0,0.0,83,0.00,CLR,SKC,0.02,WeatherDisplay:10.37,2013-05-18 06:57:00,
2013-05-18 08:02:00,49.8,44.9,29.34,West,270,0.0,0.0,83,0.00,CLR,SKC,0.02,WeatherDisplay:10.37,2013-05-18 07:02:00,
2013-05-18 08:07:00,49.8,44.9,29.34,West,270,0.0,0.0,83,0.00,CLR,SKC,0.02,WeatherDisplay:10.37,2013-05-18 07:07:00,
2013-05-18 08:12:00,49.8,44.9,29.34,West,270,0.0,0.0,83,0.00,CLR,SKC,0.02,WeatherDisplay:10.37,2013-05-18 07:12:00,
2013-05-18 08:17:00,49.6,45.0,29.35,West,270,0.0,0.0,84,0.00,CLR,SKC,0.02,WeatherDisplay:10.37,2013-05-18 07:17:00,
2013-05-18 08:22:00,49.8,45.2,29.35,West,270,0.0,0.0,84,0.00,CLR,SKC,0.02,WeatherDisplay:10.37,2013-05-18 07:22:00,
2013-05-18 08:27:00,49.8,45.2,29.34,WNW,292,0.0,0.0,84,0.00,CLR,SKC,0.02,WeatherDisplay:10.37,2013-05-18 07:27:00,
2013-05-18 08:32:00,49.8,45.2,29.34,WSW,248,0.0,0.0,84,0.00,CLR,SKC,0.02,WeatherDisplay:10.37,2013-05-18 07:32:00,
2013-05-18 08:37:00,49.8,45.2,29.34,SW,225,0.0,0.0,84,0.00,CLR,SKC,0.02,WeatherDisplay:10.37,2013-05-18 07:37:00,
2013-05-18 08:42:00,50.2,45.5,29.34,SW,225,0.0,0.0,84,0.00,CLR,SKC,0.02,WeatherDisplay:10.37,2013-05-18 07:42:00,
2013-05-18 08:47:00,50.2,45.5,29.34,SW,225,0.0,0.0,84,0.00,CLR,SKC,0.02,WeatherDisplay:10.37,2013-05-18 07:47:00,
2013-05-18 08:52:00,50.4,45.7,29.34,WSW,248,0.0,0.0,84,0.00,CLR,SKC,0.02,WeatherDisplay:10.37,2013-05-18 07:52:00,
2013-05-18 08:57:00,50.5,45.9,29.34,NW,315,0.0,0.0,84,0.00,CLR,SKC,0.02,WeatherDisplay:10.37,2013-05-18 07:57:00,
2013-05-18 09:02:00,50.5,45.9,29.34,West,270,0.0,0.0,84,0.00,CLR,SKC,0.02,WeatherDisplay:10.37,2013-05-18 08:02:00,
2013-05-18 09:07:00,50.7,46.1,29.33,West,270,0.0,0.0,84,0.00,CLR,SKC,0.02,WeatherDisplay:10.37,2013-05-18 08:07:00,
2013-05-18 09:12:00,50.9,46.2,29.34,WNW,292,0.0,0.0,84,0.00,CLR,SKC,0.02,WeatherDisplay:10.37,2013-05-18 08:12:00,
2013-05-18 09:17:00,51.1,46.4,29.33,West,270,0.0,0.0,84,0.00,CLR,SKC,0.02,WeatherDisplay:10.37,2013-05-18 08:17:00,
2013-05-18 09:22:00,51.3,46.6,29.33,West,270,0.0,0.0,84,0.00,CLR,SKC,0.02,WeatherDisplay:10.37,2013-05-18 08:22:00,
2013-05-18 09:27:00,51.6,46.9,29.33,West,270,0.0,0.0,84,0.00,CLR,SKC,0.02,WeatherDisplay:10.37,2013-05-18 08:27:00,
2013-05-18 09:32:00,52.0,47.3,29.33,West,270,0.0,0.0,84,0.00,CLR,SKC,0.02,WeatherDisplay:10.37,2013-05-18 08:32:00,
2013-05-18 09:37:00,52.3,47.6,29.33,SW,225,0.0,0.0,84,0.00,CLR,SKC,0.02,WeatherDisplay:10.37,2013-05-18 08:37:00,
2013-05-18 09:42:00,52.9,48.2,29.32,SW,225,0.0,0.0,84,0.00,CLR,SKC,0.02,WeatherDisplay:10.37,2013-05-18 08:42:00,
2013-05-18 09:47:00,53.4,48.7,29.32,SW,225,0.0,0.0,84,0.00,CLR,SKC,0.02,WeatherDisplay:10.37,2013-05-18 08:47:00,
2013-05-18 09:52:00,54.0,49.2,29.32,SW,225,0.0,0.0,84,0.00,CLR,SKC,0.02,WeatherDisplay:10.37,2013-05-18 08:52:00,
2013-05-18 09:57:00,54.1,49.1,29.32,SW,225,0.0,0.0,83,0.00,CLR,SKC,0.02,WeatherDisplay:10.37,2013-05-18 08:57:00,
2013-05-18 10:02:00,54.3,49.3,29.31,SW,225,0.0,0.0,83,0.00,CLR,SKC,0.02,WeatherDisplay:10.37,2013-05-18 09:02:00,
2013-05-18 10:07:00,54.5,49.4,29.31,WSW,248,0.0,0.0,83,0.00,CLR,SKC,0.02,WeatherDisplay:10.37,2013-05-18 09:07:00,
2013-05-18 10:12:00,54.7,49.6,29.31,WSW,248,0.0,0.0,83,0.00,CLR,SKC,0.02,WeatherDisplay:10.37,2013-05-18 09:12:00,
2013-05-18 10:17:00,54.9,49.5,29.31,WSW,248,0.0,0.0,82,0.00,CLR,SKC,0.02,WeatherDisplay:10.37,2013-05-18 09:17:00,
2013-05-18 10:22:00,55.0,49.6,29.31,WSW,248,0.0,0.0,82,0.00,CLR,SKC,0.02,WeatherDisplay:10.37,2013-05-18 09:22:00,
2013-05-18 10:27:00,55.0,49.6,29.31,WSW,248,0.0,0.0,82,0.00,CLR,SKC,0.02,WeatherDisplay:10.37,2013-05-18 09:27:00,
2013-05-18 10:32:00,55.2,49.8,29.30,WSW,248,0.0,0.0,82,0.00,CLR,SKC,0.02,WeatherDisplay:10.37,2013-05-18 09:32:00,
2013-05-18 10:37:00,55.4,49.7,29.30,WSW,248,0.0,0.0,81,0.00,CLR,SKC,0.02,WeatherDisplay:10.37,2013-05-18 09:37:00,
2013-05-18 10:42:00,55.6,49.8,29.30,WSW,248,0.0,0.0,81,0.00,CLR,SKC,0.02,WeatherDisplay:10.37,2013-05-18 09:42:00,
2013-05-18 10:47:00,55.8,50.0,29.30,WSW,248,0.0,0.0,81,0.00,CLR,SKC,0.02,WeatherDisplay:10.37,2013-05-18 09:47:00,
2013-05-18 10:52:00,55.6,49.8,29.30,WSW,248,0.0,0.0,81,0.00,CLR,SKC,0.02,WeatherDisplay:10.37,2013-05-18 09:52:00,
2013-05-18 10:57:00,55.4,49.7,29.30,WSW,248,0.0,0.0,81,0.00,CLR,SKC,0.02,WeatherDisplay:10.37,2013-05-18 09:57:00,
2013-05-18 11:02:00,55.2,49.5,29.29,WSW,248,0.0,0.0,81,0.00,CLR,SKC,0.02,WeatherDisplay:10.37,2013-05-18 10:02:00,
2013-05-18 11:07:00,55.0,49.3,29.30,WSW,248,0.0,0.0,81,0.00,CLR,SKC,0.02,WeatherDisplay:10.37,2013-05-18 10:07:00,
2013-05-18 11:12:00,54.9,49.1,29.30,WSW,248,0.0,0.0,81,0.00,CLR,SKC,0.02,WeatherDisplay:10.37,2013-05-18 10:12:00,
2013-05-18 11:17:00,54.7,49.0,29.31,WSW,248,0.0,0.0,81,0.00,CLR,SKC,0.02,WeatherDisplay:10.37,2013-05-18 10:17:00,
2013-05-18 11:22:00,54.7,49.0,29.30,WSW,248,0.0,0.0,81,0.00,CLR,SKC,0.02,WeatherDisplay:10.37,2013-05-18 10:22:00,
2013-05-18 11:27:00,54.7,49.0,29.30,WSW,248,0.0,0.0,81,0.00,CLR,SKC,0.02,WeatherDisplay:10.37,2013-05-18 10:27:00,
2013-05-18 11:32:00,54.7,49.3,29.31,WSW,248,0.0,0.0,82,0.00,CLR,SKC,0.02,WeatherDisplay:10.37,2013-05-18 10:32:00,
2013-05-18 11:37:00,54.7,49.3,29.30,WSW,248,0.0,0.0,82,0.02,RA,SKC,0.04,WeatherDisplay:10.37,2013-05-18 10:37:00,
2013-05-18 11:42:00,54.3,49.3,29.29,WSW,248,0.0,0.0,83,0.06,RA,SKC,0.08,WeatherDisplay:10.37,2013-05-18 10:42:00,
2013-05-18 11:47:00,54.1,49.4,29.29,WSW,248,0.0,0.0,84,0.06,RA,SKC,0.10,WeatherDisplay:10.37,2013-05-18 10:47:00,
2013-05-18 11:52:00,54.1,49.4,29.29,WSW,248,0.0,0.0,84,0.08,RA,SKC,0.10,WeatherDisplay:10.37,2013-05-18 10:52:00,
2013-05-18 11:57:00,54.1,49.4,29.28,WSW,248,0.0,0.0,84,0.08,RA,SKC,0.10,WeatherDisplay:10.37,2013-05-18 10:57:00,
2013-05-18 12:02:00,54.7,50.6,29.28,East,90,0.0,0.0,86,0.10,RA,SKC,0.12,WeatherDisplay:10.37,2013-05-18 11:02:00,
2013-05-18 12:07:00,54.7,50.6,29.29,East,90,0.0,0.0,86,0.10,RA,SKC,0.12,WeatherDisplay:10.37,2013-05-18 11:07:00,
2013-05-18 12:12:00,54.7,50.9,29.29,ENE,68,0.0,0.0,87,0.10,CLR,SKC,0.12,WeatherDisplay:10.37,2013-05-18 11:12:00,
2013-05-18 12:17:00,54.9,51.1,29.28,ENE,68,0.0,0.0,87,0.12,RA,SKC,0.14,WeatherDisplay:10.37,2013-05-18 11:17:00,
2013-05-18 12:22:00,54.9,51.1,29.29,East,90,0.0,0.0,87,0.14,RA,SKC,0.16,WeatherDisplay:10.37,2013-05-18 11:22:00,
2013-05-18 12:27:00,54.9,51.4,29.29,South,180,0.0,0.0,88,0.14,RA,SKC,0.16,WeatherDisplay:10.37,2013-05-18 11:27:00,
2013-05-18 12:32:00,54.7,51.2,29.30,SE,135,0.0,0.0,88,0.16,RA,SKC,0.18,WeatherDisplay:10.37,2013-05-18 11:32:00,
2013-05-18 12:37:00,54.7,51.5,29.29,SE,135,0.0,0.0,89,0.14,RA,SKC,0.18,WeatherDisplay:10.37,2013-05-18 11:37:00,
2013-05-18 12:42:00,54.7,51.5,29.29,ESE,112,0.0,0.0,89,0.10,CLR,SKC,0.18,WeatherDisplay:10.37,2013-05-18 11:42:00,
2013-05-18 12:47:00,54.7,51.8,29.29,ESE,112,0.0,0.0,90,0.10,CLR,SKC,0.20,WeatherDisplay:10.37,2013-05-18 11:47:00,
2013-05-18 12:52:00,54.7,51.8,29.29,ESE,112,0.0,0.0,90,0.10,RA,SKC,0.20,WeatherDisplay:10.37,2013-05-18 11:52:00,
2013-05-18 13:08:00,54.7,51.8,29.29,ESE,112,0.0,0.0,90,0.10,,SKC,0.22,WeatherDisplay:10.37,2013-05-18 12:08:00,
2013-05-18 13:13:00,54.5,51.6,29.29,ESE,112,0.0,0.0,90,0.10,CLR,SKC,0.22,WeatherDisplay:10.37,2013-05-18 12:13:00,
2013-05-18 13:18:00,54.3,51.4,29.29,SE,135,0.0,0.0,90,0.08,CLR,SKC,0.22,WeatherDisplay:10.37,2013-05-18 12:18:00,
2013-05-18 13:23:00,54.3,51.4,29.29,East,90,0.0,0.0,90,0.06,CLR,SKC,0.22,WeatherDisplay:10.37,2013-05-18 12:23:00,
2013-05-18 13:28:00,54.7,52.1,29.29,SSE,158,0.0,0.0,91,0.06,CLR,SKC,0.22,WeatherDisplay:10.37,2013-05-18 12:28:00,
2013-05-18 13:33:00,54.7,52.1,29.29,ESE,112,0.0,0.0,91,0.04,CLR,SKC,0.22,WeatherDisplay:10.37,2013-05-18 12:33:00,
2013-05-18 13:38:00,55.0,52.5,29.30,SE,135,0.0,0.0,91,0.04,CLR,SKC,0.22,WeatherDisplay:10.37,2013-05-18 12:38:00,
2013-05-18 13:43:00,55.2,52.6,29.30,ESE,112,0.0,0.0,91,0.04,CLR,SKC,0.22,WeatherDisplay:10.37,2013-05-18 12:43:00,
2013-05-18 13:48:00,55.2,52.6,29.30,SE,135,0.0,0.0,91,0.02,CLR,SKC,0.22,WeatherDisplay:10.37,2013-05-18 12:48:00,
2013-05-18 13:53:00,55.2,52.3,29.31,SE,135,0.0,0.0,90,0.02,CLR,SKC,0.22,WeatherDisplay:10.37,2013-05-18 12:53:00,
2013-05-18 13:58:00,55.2,52.3,29.31,ENE,68,0.0,0.0,90,0.00,CLR,SKC,0.22,WeatherDisplay:10.37,2013-05-18 12:58:00,
2013-05-18 14:03:00,55.2,52.3,29.30,ESE,112,0.0,0.0,90,0.00,CLR,SKC,0.22,WeatherDisplay:10.37,2013-05-18 13:03:00,
2013-05-18 14:08:00,55.4,52.5,29.30,ESE,112,0.0,0.0,90,0.00,CLR,SKC,0.22,WeatherDisplay:10.37,2013-05-18 13:08:00,
2013-05-18 14:13:00,55.2,52.3,29.30,East,90,0.0,0.0,90,0.00,CLR,SKC,0.22,WeatherDisplay:10.37,2013-05-18 13:13:00,
2013-05-18 14:18:00,55.2,52.3,29.30,East,90,0.0,0.0,90,0.00,CLR,SKC,0.22,WeatherDisplay:10.37,2013-05-18 13:18:00,
2013-05-18 14:23:00,55.0,52.2,29.29,SE,135,0.0,0.0,90,0.02,RA,SKC,0.24,WeatherDisplay:10.37,2013-05-18 13:23:00,
2013-05-18 14:28:00,55.0,52.2,29.29,East,90,0.0,0.0,90,0.02,RA,SKC,0.24,WeatherDisplay:10.37,2013-05-18 13:28:00,
2013-05-18 14:33:00,55.0,52.2,29.29,SE,135,0.0,0.0,90,0.02,,SKC,0.24,WeatherDisplay:10.37,2013-05-18 13:33:00,
2013-05-18 14:38:00,55.0,52.5,29.29,ESE,112,0.0,0.0,91,0.02,CLR,SKC,0.24,WeatherDisplay:10.37,2013-05-18 13:38:00,
2013-05-18 14:43:00,55.2,52.6,29.30,SE,135,0.0,0.0,91,0.04,RA,SKC,0.26,WeatherDisplay:10.37,2013-05-18 13:43:00,
2013-05-18 14:48:00,55.0,52.5,29.29,SE,135,0.0,0.0,91,0.06,RA,SKC,0.28,WeatherDisplay:10.37,2013-05-18 13:48:00,
2013-05-18 14:53:00,55.0,52.5,29.29,ESE,112,0.0,0.0,91,0.10,RA,SKC,0.32,WeatherDisplay:10.37,2013-05-18 13:53:00,
2013-05-18 14:58:00,55.0,52.5,29.29,SE,135,0.0,0.0,91,0.10,RA,SKC,0.32,WeatherDisplay:10.37,2013-05-18 13:58:00,
2013-05-18 15:03:00,55.0,52.5,29.29,SSE,158,0.0,0.0,91,0.10,CLR,SKC,0.32,WeatherDisplay:10.37,2013-05-18 14:03:00,
2013-05-18 15:08:00,55.0,52.5,29.29,NE,45,0.0,0.0,91,0.10,CLR,SKC,0.32,WeatherDisplay:10.37,2013-05-18 14:08:00,
2013-05-18 15:13:00,55.2,52.6,29.29,ESE,112,0.0,0.0,91,0.10,CLR,SKC,0.32,WeatherDisplay:10.37,2013-05-18 14:13:00,
2013-05-18 15:18:00,55.4,52.5,29.29,ESE,112,0.0,0.0,90,0.10,CLR,SKC,0.32,WeatherDisplay:10.37,2013-05-18 14:18:00,
2013-05-18 15:23:00,55.8,52.9,29.29,East,90,0.0,0.0,90,0.08,CLR,SKC,0.32,WeatherDisplay:10.37,2013-05-18 14:23:00,
2013-05-18 15:28:00,55.9,53.0,29.29,ESE,112,0.0,0.0,90,0.08,CLR,SKC,0.32,WeatherDisplay:10.37,2013-05-18 14:28:00,
2013-05-18 15:33:00,56.1,53.2,29.29,East,90,0.0,0.0,90,0.08,CLR,SKC,0.32,WeatherDisplay:10.37,2013-05-18 14:33:00,
2013-05-18 15:38:00,56.1,52.9,29.28,SE,135,0.0,0.0,89,0.08,CLR,SKC,0.32,WeatherDisplay:10.37,2013-05-18 14:38:00,
2013-05-18 15:43:00,55.9,52.4,29.28,SE,135,0.0,0.0,88,0.06,CLR,SKC,0.32,WeatherDisplay:10.37,2013-05-18 14:43:00,
2013-05-18 15:48:00,55.9,52.4,29.28,SE,135,0.0,0.0,88,0.04,CLR,SKC,0.32,WeatherDisplay:10.37,2013-05-18 14:48:00,
2013-05-18 15:53:00,55.9,52.4,29.28,ENE,68,0.0,0.0,88,0.00,CLR,SKC,0.32,WeatherDisplay:10.37,2013-05-18 14:53:00,
2013-05-18 15:58:00,55.9,52.4,29.28,ESE,112,0.0,0.0,88,0.00,CLR,SKC,0.32,WeatherDisplay:10.37,2013-05-18 14:58:00,
2013-05-18 16:03:00,55.9,52.4,29.28,ESE,112,0.0,0.0,88,0.00,CLR,SKC,0.32,WeatherDisplay:10.37,2013-05-18 15:03:00,
2013-05-18 16:08:00,55.9,52.4,29.28,SSE,158,0.0,0.0,88,0.00,CLR,SKC,0.32,WeatherDisplay:10.37,2013-05-18 15:08:00,
2013-05-18 16:13:00,55.9,52.4,29.28,ESE,112,0.0,0.0,88,0.00,CLR,SKC,0.32,WeatherDisplay:10.37,2013-05-18 15:13:00,
2013-05-18 16:18:00,55.9,52.4,29.28,East,90,0.0,0.0,88,0.00,CLR,SKC,0.32,WeatherDisplay:10.37,2013-05-18 15:18:00,
2013-05-18 16:23:00,55.8,52.3,29.28,SE,135,0.0,0.0,88,0.00,CLR,SKC,0.32,WeatherDisplay:10.37,2013-05-18 15:23:00,
2013-05-18 16:28:00,55.9,52.4,29.28,ESE,112,0.0,0.0,88,0.00,CLR,SKC,0.32,WeatherDisplay:10.37,2013-05-18 15:28:00,
2013-05-18 16:33:00,55.9,52.7,29.28,East,90,0.0,0.0,89,0.00,CLR,SKC,0.32,WeatherDisplay:10.37,2013-05-18 15:33:00,
2013-05-18 16:38:00,55.9,52.4,29.28,East,90,0.0,0.0,88,0.00,CLR,SKC,0.32,WeatherDisplay:10.37,2013-05-18 15:38:00,
2013-05-18 16:43:00,56.3,52.8,29.27,SE,135,0.0,0.0,88,0.00,CLR,SKC,0.32,WeatherDisplay:10.37,2013-05-18 15:43:00,
2013-05-18 16:48:00,56.5,53.0,29.27,East,90,0.0,0.0,88,0.00,CLR,SKC,0.32,WeatherDisplay:10.37,2013-05-18 15:48:00,
2013-05-18 16:53:00,56.8,53.3,29.27,SE,135,0.0,0.0,88,0.00,CLR,SKC,0.32,WeatherDisplay:10.37,2013-05-18 15:53:00,
2013-05-18 16:58:00,56.8,53.0,29.27,SE,135,0.0,0.0,87,0.00,CLR,SKC,0.32,WeatherDisplay:10.37,2013-05-18 15:58:00,
2013-05-18 17:03:00,57.0,53.5,29.27,ESE,112,0.0,0.0,88,0.00,CLR,SKC,0.32,WeatherDisplay:10.37,2013-05-18 16:03:00,
2013-05-18 17:08:00,57.0,53.2,29.28,ESE,112,0.0,0.0,87,0.00,CLR,SKC,0.32,WeatherDisplay:10.37,2013-05-18 16:08:00,
2013-05-18 17:13:00,56.8,53.0,29.28,ESE,112,0.0,0.0,87,0.00,CLR,SKC,0.32,WeatherDisplay:10.37,2013-05-18 16:13:00,
2013-05-18 17:18:00,56.7,52.8,29.28,SE,135,0.0,0.0,87,0.00,CLR,SKC,0.32,WeatherDisplay:10.37,2013-05-18 16:18:00,
2013-05-18 17:23:00,56.5,52.7,29.27,East,90,0.0,0.0,87,0.00,CLR,SKC,0.32,WeatherDisplay:10.37,2013-05-18 16:23:00,
2013-05-18 17:28:00,56.3,52.5,29.28,SE,135,0.0,0.0,87,0.00,CLR,SKC,0.32,WeatherDisplay:10.37,2013-05-18 16:28:00,
2013-05-18 17:33:00,55.9,52.1,29.28,East,90,0.0,0.0,87,0.00,CLR,SKC,0.32,WeatherDisplay:10.37,2013-05-18 16:33:00,
2013-05-18 17:38:00,55.8,52.3,29.28,SSW,202,0.0,0.0,88,0.00,CLR,SKC,0.32,WeatherDisplay:10.37,2013-05-18 16:38:00,
2013-05-18 17:43:00,55.8,52.3,29.28,South,180,0.0,0.0,88,0.00,CLR,SKC,0.32,WeatherDisplay:10.37,2013-05-18 16:43:00,
2013-05-18 17:48:00,55.4,51.9,29.28,ESE,112,0.0,0.0,88,0.00,CLR,SKC,0.32,WeatherDisplay:10.37,2013-05-18 16:48:00,
2013-05-18 17:53:00,55.0,51.5,29.28,SE,135,0.0,0.0,88,0.00,CLR,SKC,0.32,WeatherDisplay:10.37,2013-05-18 16:53:00,
2013-05-18 17:58:00,55.0,51.2,29.28,ESE,112,0.0,0.0,87,0.00,CLR,SKC,0.32,WeatherDisplay:10.37,2013-05-18 16:58:00,
2013-05-18 18:03:00,54.7,51.2,29.29,SE,135,0.0,0.0,88,0.00,CLR,SKC,0.32,WeatherDisplay:10.37,2013-05-18 17:03:00,
2013-05-18 18:08:00,54.7,51.2,29.29,South,180,0.0,0.0,88,0.00,CLR,SKC,0.32,WeatherDisplay:10.37,2013-05-18 17:08:00,
2013-05-18 18:13:00,54.5,51.3,29.29,ESE,112,0.0,0.0,89,0.00,CLR,SKC,0.32,WeatherDisplay:10.37,2013-05-18 17:13:00,
2013-05-18 18:18:00,54.3,51.1,29.30,SSE,158,0.0,0.0,89,0.02,RA,SKC,0.34,WeatherDisplay:10.37,2013-05-18 17:18:00,
2013-05-18 18:23:00,54.1,51.3,29.31,SE,135,0.0,0.0,90,0.02,RA,SKC,0.34,WeatherDisplay:10.37,2013-05-18 17:23:00,
2013-05-18 18:28:00,54.0,51.1,29.30,ESE,112,0.0,0.0,90,0.02,CLR,SKC,0.34,WeatherDisplay:10.37,2013-05-18 17:28:00,
2013-05-18 18:33:00,53.8,50.9,29.31,ESE,112,0.0,0.0,90,0.02,CLR,SKC,0.34,WeatherDisplay:10.37,2013-05-18 17:33:00,
2013-05-18 18:38:00,53.4,50.6,29.31,East,90,0.0,0.0,90,0.02,CLR,SKC,0.34,WeatherDisplay:10.37,2013-05-18 17:38:00,
2013-05-18 18:43:00,53.2,50.7,29.31,South,180,0.0,0.0,91,0.04,RA,SKC,0.36,WeatherDisplay:10.37,2013-05-18 17:43:00,
2013-05-18 18:49:00,53.1,50.5,29.31,SE,135,0.0,0.0,91,0.04,RA,SKC,0.36,WeatherDisplay:10.37,2013-05-18 17:49:00,
2013-05-18 18:54:00,52.7,50.1,29.31,SE,135,0.0,0.0,91,0.04,CLR,SKC,0.36,WeatherDisplay:10.37,2013-05-18 17:54:00,
2013-05-18 18:59:00,52.7,50.1,29.31,SSW,202,0.0,0.0,91,0.04,CLR,SKC,0.36,WeatherDisplay:10.37,2013-05-18 17:59:00,
2013-05-18 19:04:00,52.5,50.0,29.31,ESE,112,0.0,0.0,91,0.04,CLR,SKC,0.36,WeatherDisplay:10.37,2013-05-18 18:04:00,
2013-05-18 19:09:00,52.5,50.0,29.31,ESE,112,0.0,0.0,91,0.06,RA,SKC,0.38,WeatherDisplay:10.37,2013-05-18 18:09:00,
2013-05-18 19:14:00,52.5,50.0,29.31,ESE,112,0.0,0.0,91,0.06,RA,SKC,0.38,WeatherDisplay:10.37,2013-05-18 18:14:00,
2013-05-18 19:19:00,52.5,50.3,29.31,SSE,158,0.0,0.0,92,0.04,CLR,SKC,0.38,WeatherDisplay:10.37,2013-05-18 18:19:00,
2013-05-18 19:24:00,52.5,50.3,29.31,East,90,0.0,0.0,92,0.04,CLR,SKC,0.38,WeatherDisplay:10.37,2013-05-18 18:24:00,
2013-05-18 19:29:00,52.3,50.1,29.31,ESE,112,0.0,0.0,92,0.04,CLR,SKC,0.38,WeatherDisplay:10.37,2013-05-18 18:29:00,
2013-05-18 19:34:00,52.3,50.1,29.31,East,90,0.0,0.0,92,0.04,CLR,SKC,0.38,WeatherDisplay:10.37,2013-05-18 18:34:00,
2013-05-18 19:39:00,52.3,50.1,29.32,SE,135,0.0,0.0,92,0.04,CLR,SKC,0.38,WeatherDisplay:10.37,2013-05-18 18:39:00,
2013-05-18 19:44:00,52.2,49.9,29.32,South,180,0.0,0.0,92,0.02,CLR,SKC,0.38,WeatherDisplay:10.37,2013-05-18 18:44:00,
2013-05-18 19:49:00,52.2,49.9,29.32,SSE,158,0.0,0.0,92,0.04,RA,SKC,0.40,WeatherDisplay:10.37,2013-05-18 18:49:00,
2013-05-18 19:54:00,52.2,49.9,29.32,South,180,0.0,0.0,92,0.04,RA,SKC,0.40,WeatherDisplay:10.37,2013-05-18 18:54:00,
2013-05-18 19:59:00,52.0,49.7,29.32,SE,135,0.0,0.0,92,0.04,,SKC,0.40,WeatherDisplay:10.37,2013-05-18 18:59:00,
2013-05-18 20:04:00,52.0,49.7,29.32,ESE,112,0.0,0.0,92,0.04,CLR,SKC,0.40,WeatherDisplay:10.37,2013-05-18 19:04:00,
2013-05-18 20:09:00,52.0,49.7,29.32,SE,135,0.0,0.0,92,0.04,RA,SKC,0.42,WeatherDisplay:10.37,2013-05-18 19:09:00,
2013-05-18 20:14:00,52.0,49.7,29.33,SE,135,0.0,0.0,92,0.04,RA,SKC,0.42,WeatherDisplay:10.37,2013-05-18 19:14:00,
2013-05-18 20:19:00,51.8,49.5,29.32,SE,135,0.0,0.0,92,0.04,CLR,SKC,0.42,WeatherDisplay:10.37,2013-05-18 19:19:00,
2013-05-18 20:24:00,51.8,49.5,29.32,ESE,112,0.0,0.0,92,0.04,CLR,SKC,0.42,WeatherDisplay:10.37,2013-05-18 19:24:00,
2013-05-18 20:29:00,51.8,49.8,29.32,SE,135,0.0,0.0,93,0.04,CLR,SKC,0.42,WeatherDisplay:10.37,2013-05-18 19:29:00,
2013-05-18 20:34:00,51.8,49.8,29.32,SE,135,0.0,0.0,93,0.04,CLR,SKC,0.42,WeatherDisplay:10.37,2013-05-18 19:34:00,
2013-05-18 20:39:00,51.8,49.8,29.33,SE,135,0.0,0.0,93,0.04,CLR,SKC,0.42,WeatherDisplay:10.37,2013-05-18 19:39:00,
2013-05-18 20:44:00,51.8,49.8,29.33,ESE,112,0.0,0.0,93,0.04,CLR,SKC,0.42,WeatherDisplay:10.37,2013-05-18 19:44:00,
2013-05-18 20:49:00,52.0,50.0,29.33,SE,135,0.0,0.0,93,0.02,CLR,SKC,0.42,WeatherDisplay:10.37,2013-05-18 19:49:00,
2013-05-18 20:54:00,52.0,50.0,29.33,ESE,112,0.0,0.0,93,0.02,CLR,SKC,0.42,WeatherDisplay:10.37,2013-05-18 19:54:00,
2013-05-18 20:59:00,52.2,50.2,29.33,SE,135,0.0,0.0,93,0.02,CLR,SKC,0.42,WeatherDisplay:10.37,2013-05-18 19:59:00,
2013-05-18 21:04:00,52.2,50.2,29.33,ESE,112,0.0,0.0,93,0.02,CLR,SKC,0.44,WeatherDisplay:10.37,2013-05-18 20:04:00,
2013-05-18 21:09:00,52.3,50.4,29.34,SSE,158,0.0,0.0,93,0.02,RA,SKC,0.44,WeatherDisplay:10.37,2013-05-18 20:09:00,
2013-05-18 21:14:00,52.2,50.2,29.34,SE,135,0.0,0.0,93,0.02,RA,SKC,0.44,WeatherDisplay:10.37,2013-05-18 20:14:00,
2013-05-18 21:19:00,52.2,50.2,29.34,SW,225,0.0,0.0,93,0.04,RA,SKC,0.46,WeatherDisplay:10.37,2013-05-18 20:19:00,
2013-05-18 21:24:00,52.0,50.0,29.34,West,270,0.0,0.0,93,0.04,RA,SKC,0.46,WeatherDisplay:10.37,2013-05-18 20:24:00,
2013-05-18 21:29:00,52.0,50.0,29.34,SSE,158,0.0,0.0,93,0.04,CLR,SKC,0.46,WeatherDisplay:10.37,2013-05-18 20:29:00,
2013-05-18 21:34:00,51.6,49.7,29.34,SE,135,0.0,0.0,93,0.06,RA,SKC,0.48,WeatherDisplay:10.37,2013-05-18 20:34:00,
2013-05-18 21:39:00,51.6,49.7,29.34,SE,135,0.0,0.0,93,0.08,RA,SKC,0.50,WeatherDisplay:10.37,2013-05-18 20:39:00,
2013-05-18 21:44:00,51.4,49.5,29.35,South,180,0.0,0.0,93,0.08,RA,SKC,0.50,WeatherDisplay:10.37,2013-05-18 20:44:00,
2013-05-18 21:49:00,51.1,49.1,29.34,SE,135,0.0,0.0,93,0.10,RA,SKC,0.52,WeatherDisplay:10.37,2013-05-18 20:49:00,
2013-05-18 21:54:00,51.1,49.1,29.35,South,180,0.0,0.0,93,0.10,RA,SKC,0.52,WeatherDisplay:10.37,2013-05-18 20:54:00,
2013-05-18 21:59:00,51.1,49.1,29.36,ESE,112,0.0,0.0,93,0.12,RA,SKC,0.55,WeatherDisplay:10.37,2013-05-18 20:59:00,
2013-05-18 22:04:00,51.1,49.1,29.35,SSE,158,0.0,0.0,93,0.12,RA,SKC,0.55,WeatherDisplay:10.37,2013-05-18 21:04:00,
2013-05-18 22:09:00,51.1,49.1,29.35,SSE,158,0.0,0.0,93,0.10,,SKC,0.55,WeatherDisplay:10.37,2013-05-18 21:09:00,
2013-05-18 22:14:00,51.1,49.1,29.36,South,180,0.0,0.0,93,0.10,CLR,SKC,0.55,WeatherDisplay:10.37,2013-05-18 21:14:00,
2013-05-18 22:19:00,50.9,48.9,29.36,ESE,112,0.0,0.0,93,0.08,CLR,SKC,0.55,WeatherDisplay:10.37,2013-05-18 21:19:00,
2013-05-18 22:24:00,50.9,48.9,29.36,SSW,202,0.0,0.0,93,0.08,CLR,SKC,0.55,WeatherDisplay:10.37,2013-05-18 21:24:00,
2013-05-18 22:29:00,50.9,48.9,29.36,SE,135,0.0,0.0,93,0.08,CLR,SKC,0.55,WeatherDisplay:10.37,2013-05-18 21:29:00,
2013-05-18 22:34:00,50.7,48.8,29.36,SE,135,0.0,0.0,93,0.06,CLR,SKC,0.55,WeatherDisplay:10.37,2013-05-18 21:34:00,
2013-05-18 22:39:00,50.7,48.8,29.36,South,180,0.0,0.0,93,0.04,CLR,SKC,0.55,WeatherDisplay:10.37,2013-05-18 21:39:00,
2013-05-18 22:44:00,50.5,48.6,29.36,SE,135,0.0,0.0,93,0.04,CLR,SKC,0.55,WeatherDisplay:10.37,2013-05-18 21:44:00,
2013-05-18 22:49:00,50.5,48.6,29.36,ESE,112,0.0,0.0,93,0.02,CLR,SKC,0.55,WeatherDisplay:10.37,2013-05-18 21:49:00,
2013-05-18 22:54:00,50.4,48.4,29.37,ESE,112,0.0,0.0,93,0.02,CLR,SKC,0.55,WeatherDisplay:10.37,2013-05-18 21:54:00,
2013-05-18 22:59:00,50.4,48.4,29.37,SE,135,0.0,0.0,93,0.02,RA,SKC,0.57,WeatherDisplay:10.37,2013-05-18 21:59:00,
2013-05-18 23:04:00,50.4,48.4,29.36,ESE,112,0.0,0.0,93,0.02,RA,SKC,0.57,WeatherDisplay:10.37,2013-05-18 22:04:00,
2013-05-18 23:09:00,50.4,48.4,29.36,SE,135,0.0,0.0,93,0.02,CLR,SKC,0.57,WeatherDisplay:10.37,2013-05-18 22:09:00,
2013-05-18 23:14:00,50.2,48.2,29.36,SE,135,0.0,0.0,93,0.02,CLR,SKC,0.57,WeatherDisplay:10.37,2013-05-18 22:14:00,
2013-05-18 23:19:00,50.2,48.2,29.36,South,180,0.0,0.0,93,0.02,CLR,SKC,0.57,WeatherDisplay:10.37,2013-05-18 22:19:00,
2013-05-18 23:24:00,50.2,48.2,29.37,ESE,112,0.0,0.0,93,0.02,CLR,SKC,0.57,WeatherDisplay:10.37,2013-05-18 22:24:00,
2013-05-18 23:29:00,50.2,48.2,29.37,SE,135,0.0,0.0,93,0.02,CLR,SKC,0.57,WeatherDisplay:10.37,2013-05-18 22:29:00,
2013-05-18 23:34:00,50.2,48.2,29.37,ESE,112,0.0,0.0,93,0.04,RA,SKC,0.59,WeatherDisplay:10.37,2013-05-18 22:34:00,
2013-05-18 23:39:00,50.2,48.2,29.37,ESE,112,0.0,0.0,93,0.04,RA,SKC,0.59,WeatherDisplay:10.37,2013-05-18 22:39:00,
2013-05-18 23:44:00,50.2,48.2,29.37,ESE,112,0.0,0.0,93,0.04,CLR,SKC,0.59,WeatherDisplay:10.37,2013-05-18 22:44:00,
2013-05-18 23:49:00,50.2,48.2,29.37,SE,135,0.0,0.0,93,0.04,CLR,SKC,0.59,WeatherDisplay:10.37,2013-05-18 22:49:00,
2013-05-18 23:54:00,50.2,48.2,29.37,ESE,112,0.0,0.0,93,0.04,CLR,SKC,0.59,WeatherDisplay:10.37,2013-05-18 22:54:00,
2013-05-18 23:59:00,50.0,48.1,29.37,SE,135,0.0,0.0,93,0.02,CLR,SKC,0.59,WeatherDisplay:10.37,2013-05-18 22:59:00,